Map

Track Data

SID SEASON NUMBER BASIN SUBBASIN NAME ISO_TIME NATURE LAT LON WMO_WIND WMO_PRES WMO_AGENCY TRACK_TYPE DIST2LAND LANDFALL IFLAG USA_AGENCY USA_ATCF_ID USA_LAT USA_LON USA_RECORD USA_STATUS USA_WIND USA_PRES USA_SSHS USA_R34_NE USA_R34_SE USA_R34_SW USA_R34_NW USA_R50_NE USA_R50_SE USA_R50_SW USA_R50_NW USA_R64_NE USA_R64_SE USA_R64_SW USA_R64_NW USA_POCI USA_ROCI USA_RMW USA_EYE TOKYO_LAT TOKYO_LON TOKYO_GRADE TOKYO_WIND TOKYO_PRES TOKYO_R50_DIR TOKYO_R50_LONG TOKYO_R50_SHORT TOKYO_R30_DIR TOKYO_R30_LONG TOKYO_R30_SHORT TOKYO_LAND CMA_LAT CMA_LON CMA_CAT CMA_WIND CMA_PRES HKO_LAT HKO_LON HKO_CAT HKO_WIND HKO_PRES NEWDELHI_LAT NEWDELHI_LON NEWDELHI_GRADE NEWDELHI_WIND NEWDELHI_PRES NEWDELHI_CI NEWDELHI_DP NEWDELHI_POCI REUNION_LAT REUNION_LON REUNION_TYPE REUNION_WIND REUNION_PRES REUNION_TNUM REUNION_CI REUNION_RMW REUNION_R34_NE REUNION_R34_SE REUNION_R34_SW REUNION_R34_NW REUNION_R50_NE REUNION_R50_SE REUNION_R50_SW REUNION_R50_NW REUNION_R64_NE REUNION_R64_SE REUNION_R64_SW REUNION_R64_NW BOM_LAT BOM_LON BOM_TYPE BOM_WIND BOM_PRES BOM_TNUM BOM_CI BOM_RMW BOM_R34_NE BOM_R34_SE BOM_R34_SW BOM_R34_NW BOM_R50_NE BOM_R50_SE BOM_R50_SW BOM_R50_NW BOM_R64_NE BOM_R64_SE BOM_R64_SW BOM_R64_NW BOM_ROCI BOM_POCI BOM_EYE BOM_POS_METHOD BOM_PRES_METHOD NADI_LAT NADI_LON NADI_CAT NADI_WIND NADI_PRES WELLINGTON_LAT WELLINGTON_LON WELLINGTON_WIND WELLINGTON_PRES DS824_LAT DS824_LON DS824_STAGE DS824_WIND DS824_PRES TD9636_LAT TD9636_LON TD9636_STAGE TD9636_WIND TD9636_PRES TD9635_LAT TD9635_LON TD9635_WIND TD9635_PRES TD9635_ROCI NEUMANN_LAT NEUMANN_LON NEUMANN_CLASS NEUMANN_WIND NEUMANN_PRES MLC_LAT MLC_LON MLC_CLASS MLC_WIND MLC_PRES USA_GUST BOM_GUST BOM_GUST_PER REUNION_GUST REUNION_GUST_PER USA_SEAHGT USA_SEARAD_NE USA_SEARAD_SE USA_SEARAD_SW USA_SEARAD_NW STORM_SPEED STORM_DIR
1987019S12140 1987 8 SP EA IRMA 1987-01-19 00:00:00 TS -12.3500 139.700 25 1000 bom main 209 207 O_____O___O_O_ jtwc_sh SH111987 -12.4000 139.800 25 -1 -12.2000 139.400 20 25 1000 1.50000 -12.4000 139.800 1 25 -12.4000 139.800 TC 25 9 260
1987019S12140 1987 8 SP EA IRMA 1987-01-19 03:00:00 TS -12.4252 139.272 25 998 bom main 250 219 P_____O___P_P_ SH111987 -12.5001 139.393 27 -1 -12.2000 138.900 20 25 998 2.00000 1006 -12.5006 139.403 1 26 -12.5001 139.393 TC 27 7 250
1987019S12140 1987 8 SP EA IRMA 1987-01-19 06:00:00 TS -12.6002 139.004 30 996 bom main 219 190 O_____O___P_O_ jtwc_sh SH111987 -12.6000 139.000 30 -1 -12.6000 139.000 20 30 996 2.50000 -12.6006 139.015 1 27 -12.6000 139.000 TC 30 6 245
1987019S12140 1987 8 SP EA IRMA 1987-01-19 09:00:00 TS -12.6822 138.697 main 190 158 P_____P___P_P_ SH111987 -12.7000 138.635 30 -1 -12.6284 138.875 20 32 995 -12.7004 138.645 1 28 -12.7000 138.635 TC 30 6 258
1987019S12140 1987 8 SP EA IRMA 1987-01-19 12:00:00 TS -12.7250 138.375 35 994 bom main 158 131 O_____O___O_O_ jtwc_sh SH111987 -12.8000 138.300 30 -1 -12.5000 138.600 30 35 994 3.00000 -12.8000 138.300 1 30 -12.8000 138.300 TC 30 6 258
1987019S12140 1987 8 SP EA IRMA 1987-01-19 15:00:00 TS -12.8068 138.072 main 131 109 P_____P___P_P_ SH111987 -12.8999 137.992 30 -1 -12.5275 138.315 30 37 992 -12.8997 137.986 1 30 -12.8999 137.992 TC 30 6 253
1987019S12140 1987 8 SP EA IRMA 1987-01-19 18:00:00 TS -12.8999 137.773 40 990 bom main 109 86 O_____O___P_O_ jtwc_sh SH111987 -13.0000 137.700 30 -1 -12.6000 138.000 30 40 990 3.00000 -12.9996 137.692 1 30 -13.0000 137.700 TC 30 6 252
1987019S12140 1987 8 SP EA IRMA 1987-01-19 21:00:00 TS -12.9924 137.475 main 86 55 P_____P___P_P_ SH111987 -13.1000 137.400 30 -1 -12.6700 137.700 30 45 987 -13.0997 137.402 1 30 -13.1000 137.400 TC 30 6 251
1987019S12140 1987 8 SP EA IRMA 1987-01-20 00:00:00 TS -13.1000 137.175 50 985 bom main 55 31 O_____O___O_O_ jtwc_sh SH111987 -13.2000 137.100 30 -1 -12.8000 137.400 30 50 985 3.50000 1006 -13.2000 137.100 1 30 -13.2000 137.100 TC 30 6 248
1987019S12140 1987 8 SP EA IRMA 1987-01-20 03:00:00 TS -13.2243 136.882 main 31 10 P_____P___P_P_ SH111987 -13.2999 136.815 30 -1 -13.0424 137.123 30 55 981 -13.2551 136.776 1 30 -13.2999 136.815 TC 32 7 247
1987019S12140 1987 8 SP EA IRMA 1987-01-20 06:00:00 TS -13.3543 136.559 60 978 bom main 15 11 O_____O___P_O_ jtwc_sh SH111987 -13.4000 136.500 30 -1 -13.3000 136.800 30 60 978 4.00000 -13.3172 136.436 1 30 -13.4000 136.500 TC 35 7 253
1987019S12140 1987 8 SP EA IRMA 1987-01-20 09:00:00 TS -13.4414 136.168 main 11 0 P_____P___P_P_ SH111987 -13.4700 136.122 30 -1 -13.4051 136.350 30 60 979 -13.4207 136.079 1 30 -13.4700 136.122 TC 32 8 253
1987019S12140 1987 8 SP EA IRMA 1987-01-20 12:00:00 TS -13.6000 135.750 60 980 bom main 0 0 O_____O___O_O_ jtwc_sh SH111987 -13.6000 135.700 30 -1 -13.6000 135.900 30 60 980 -13.6000 135.700 1 30 -13.6000 135.700 TC 30 9 239
1987019S12140 1987 8 SP EA IRMA 1987-01-20 15:00:00 TS -13.9287 135.348 main 0 0 P_____P___P_P_ SH111987 -13.8475 135.250 30 -1 -14.1197 135.622 30 55 980 -13.9003 135.269 1 30 -13.8475 135.250 TC 30 11 227
1987019S12140 1987 8 SI WA IRMA 1987-01-20 18:00:00 TS -14.3439 134.930 50 980 bom main 0 0 O_____O___P_O_ jtwc_sh SH111987 -14.2000 134.800 30 -1 -14.7000 135.300 30 50 980 -14.2754 134.821 1 30 -14.2000 134.800 TC 30 12 226
1987019S12140 1987 8 SI WA IRMA 1987-01-20 21:00:00 TS -14.7633 134.459 main 0 0 P_____P___P_P_ SH111987 -14.6349 134.385 30 -1 -15.0955 134.678 30 42 982 -14.6878 134.388 1 30 -14.6349 134.385 TC 30 12 226
1987019S12140 1987 8 SI WA IRMA 1987-01-21 00:00:00 TS -15.1750 134.025 35 984 bom main 0 0 O_____O___O_O_ jtwc_sh SH111987 -15.1000 134.000 30 -1 -15.4000 134.100 30 35 984 1004 -15.1000 134.000 1 30 -15.1000 134.000 TC 30 11 223
1987019S12140 1987 8 SI WA IRMA 1987-01-21 03:00:00 TS -15.5515 133.698 main 0 0 P_____P___P_P_ SH111987 -15.5225 133.613 30 -1 -15.6797 133.882 30 32 987 -15.4812 133.683 1 30 -15.5225 133.613 TC 30 9 218
1987019S12140 1987 8 SI WA IRMA 1987-01-21 06:00:00 TS -15.8880 133.454 30 990 bom main 0 0 O_____O___P_O_ jtwc_sh SH111987 -15.9000 133.300 30 -1 -15.9000 133.800 20 30 990 -15.8521 133.417 1 30 -15.9000 133.300 TC 30 8 213
1987019S12140 1987 8 SI WA IRMA 1987-01-21 09:00:00 TS -16.1804 133.267 main 0 0 P_____P___P_P_ SH111987 -16.2299 133.112 30 -1 -16.0650 133.650 20 27 992 -16.1969 133.193 1 30 -16.2299 133.112 TC 30 6 210
1987019S12140 1987 8 SI WA IRMA 1987-01-21 12:00:00 TS -16.4250 133.125 25 994 bom main 0 0 O_____O___O_O_ jtwc_sh SH111987 -16.5000 133.000 30 -1 -16.2000 133.500 80 25 994 -16.5000 133.000 1 30 -16.5000 133.000 TC 30 5 210
1987019S12140 1987 8 SI WA IRMA 1987-01-21 15:00:00 TS -16.6254 132.994 main 0 0 P_____P___P_P_ SH111987 -16.7150 132.907 30 -1 -16.3125 133.350 80 22 995 -16.7592 132.813 1 30 -16.7150 132.907 TC 30 5 212
1987019S12140 1987 8 SI WA IRMA 1987-01-21 18:00:00 TS -16.8187 132.864 20 996 bom main 0 0 O_____O___P_O_ jtwc_sh SH111987 -16.9000 132.800 30 -1 -16.5000 133.200 80 20 996 -16.9748 132.655 1 30 -16.9000 132.800 TC 30 5 212
1987019S12140 1987 8 SI WA IRMA 1987-01-21 21:00:00 TS -17.0726 132.700 main 0 0 P_____P___P_P_ SH111987 -17.1075 132.615 30 -1 -16.9225 133.050 80 20 997 -17.1530 132.519 1 30 -17.1075 132.615 TC 30 6 216
1987019S12140 1987 8 SI WA IRMA 1987-01-22 00:00:00 TS -17.3000 132.500 20 998 bom main 0 0 O_____O___O_O_ jtwc_sh SH111987 -17.3000 132.400 30 -1 -17.3000 132.900 80 20 998 1002 -17.3000 132.400 1 30 -17.3000 132.400 TC 30 5 226
1987019S12140 1987 8 SI WA IRMA 1987-01-22 03:00:00 TS -17.4466 132.288 main 0 0 P_____P___P_P_ SH111987 -17.4725 132.170 30 -1 -17.3925 132.750 80 20 998 -17.4219 132.291 1 30 -17.4725 132.170 TC 30 4 236
1987019S12140 1987 8 SI WA IRMA 1987-01-22 06:00:00 TS -17.5475 132.117 20 998 bom main 0 0 O_____O___P_O_ jtwc_sh SH111987 -17.6000 132.000 30 -1 -17.3000 132.600 80 20 998 -17.5251 132.190 1 30 -17.6000 132.000 TC 30 3 233
1987019S12140 1987 8 SI WA IRMA 1987-01-22 09:00:00 TS -17.6502 132.005 main 0 0 P_________P_P_ SH111987 -17.6675 131.960 30 -1 80 -17.6157 132.094 1 30 -17.6675 131.960 TC 30 2 217
1987019S12140 1987 8 SI WA IRMA 1987-01-22 12:00:00 TS -17.7000 132.000 main 0 O_________O_O_ jtwc_sh SH111987 -17.7000 132.000 30 -1 -17.7000 132.000 1 30 -17.7000 132.000 TC 30 1 207

Digital Typhoon Data and Search

About IBTrACS Database

This database is a web-friendly format of International Best Track Archive for Climate Stewardship (IBTrACS), a global best track data archive curated by NOAA dating back to 1842.

Updated: 2021-11-26